Time;durP1;ratioP1;P1;durP2;ratioP2;P2;SDS_P1;SDS_P2;PMS_P1;PMS_P2;Temp;Humidity;BMP_temperature;BMP_pressure;BME280_temperature;BME280_humidity;BME280_pressure;Samples;Min_cycle;Max_cycle;Signal;HPM_P1;HPM_P2
2021/12/09 00:00:33;;;;;;;11.13;7.37;;;;;;;;;;5041555;28;20209;-72
2021/12/09 00:03:05;;;;;;;10.23;6.53;;;;;;;;;;5040965;28;20340;-72
2021/12/09 00:05:33;;;;;;;10.80;7.30;;;;;;;;;;5038710;28;20748;-72
2021/12/09 00:08:00;;;;;;;15.00;8.43;;;;;;;;;;5040273;28;20206;-72
2021/12/09 00:10:28;;;;;;;9.37;7.03;;;;;;;;;;5040089;28;20222;-72
2021/12/09 00:12:55;;;;;;;9.43;7.33;;;;;;;;;;5039421;28;20222;-72
2021/12/09 00:15:21;;;;;;;11.20;7.10;;;;;;;;;;5040451;28;20307;-71
2021/12/09 00:17:48;;;;;;;12.30;8.23;;;;;;;;;;5041457;28;20268;-72
2021/12/09 00:20:15;;;;;;;10.83;6.50;;;;;;;;;;5039358;28;20217;-72
2021/12/09 00:22:42;;;;;;;12.10;8.13;;;;;;;;;;5040567;28;20234;-71
2021/12/09 00:25:09;;;;;;;9.23;7.60;;;;;;;;;;5040566;28;20627;-72
2021/12/09 00:27:37;;;;;;;10.90;7.70;;;;;;;;;;5039036;28;20257;-72
2021/12/09 00:30:04;;;;;;;11.20;7.40;;;;;;;;;;5040024;28;20207;-72
2021/12/09 00:32:31;;;;;;;8.70;7.43;;;;;;;;;;5041099;28;20755;-71
2021/12/09 00:34:57;;;;;;;12.70;7.00;;;;;;;;;;5039290;28;20214;-70
2021/12/09 00:37:29;;;;;;;10.33;7.50;;;;;;;;;;5040254;28;20697;-71
2021/12/09 00:39:55;;;;;;;10.07;7.80;;;;;;;;;;5040243;28;20264;-70
2021/12/09 00:42:24;;;;;;;9.63;7.20;;;;;;;;;;5039208;28;20264;-70
2021/12/09 00:44:53;;;;;;;10.30;8.07;;;;;;;;;;5038457;28;20214;-70
2021/12/09 00:47:21;;;;;;;14.43;8.47;;;;;;;;;;5041125;28;20665;-70
2021/12/09 00:49:47;;;;;;;13.20;8.67;;;;;;;;;;5039447;28;20774;-71
2021/12/09 00:52:14;;;;;;;11.20;7.77;;;;;;;;;;5039247;28;20258;-71
2021/12/09 00:54:42;;;;;;;9.67;7.90;;;;;;;;;;5040372;28;20236;-70
2021/12/09 00:57:09;;;;;;;11.77;7.93;;;;;;;;;;5038718;28;20213;-71
2021/12/09 00:59:35;;;;;;;12.47;8.63;;;;;;;;;;5038126;28;20209;-70
2021/12/09 01:02:03;;;;;;;11.23;8.60;;;;;;;;;;5039703;28;20226;-70
2021/12/09 01:04:30;;;;;;;11.33;8.37;;;;;;;;;;5039372;28;20221;-71
2021/12/09 01:06:57;;;;;;;9.77;8.27;;;;;;;;;;5038307;28;20230;-70
2021/12/09 01:09:23;;;;;;;11.80;8.60;;;;;;;;;;5039802;28;20219;-70
2021/12/09 01:11:49;;;;;;;12.43;8.50;;;;;;;;;;5039659;28;20573;-70
2021/12/09 01:14:16;;;;;;;11.70;9.30;;;;;;;;;;5037899;28;20222;-70
2021/12/09 01:16:42;;;;;;;10.37;7.97;;;;;;;;;;5040472;28;20288;-70
2021/12/09 01:19:10;;;;;;;13.83;9.20;;;;;;;;;;5040894;28;20210;-70
2021/12/09 01:21:36;;;;;;;15.63;9.10;;;;;;;;;;5038176;28;20210;-70
2021/12/09 01:24:03;;;;;;;9.93;8.63;;;;;;;;;;5039141;28;20613;-70
2021/12/09 01:26:31;;;;;;;13.57;9.23;;;;;;;;;;5040816;28;20286;-70
2021/12/09 01:29:01;;;;;;;12.87;9.07;;;;;;;;;;5038187;28;20218;-70
2021/12/09 01:31:32;;;;;;;17.50;9.63;;;;;;;;;;5038592;28;20241;-70
2021/12/09 01:34:01;;;;;;;11.73;9.47;;;;;;;;;;5040329;28;20314;-70
2021/12/09 01:36:30;;;;;;;13.87;9.00;;;;;;;;;;5038582;28;20219;-70
2021/12/09 01:38:56;;;;;;;12.70;9.77;;;;;;;;;;5037460;28;20256;-70
2021/12/09 01:41:23;;;;;;;12.33;8.93;;;;;;;;;;5040253;28;20226;-70
2021/12/09 01:43:51;;;;;;;11.03;8.30;;;;;;;;;;5038591;28;20272;-70
2021/12/09 01:46:20;;;;;;;17.07;8.90;;;;;;;;;;5038087;28;20230;-70
2021/12/09 01:48:49;;;;;;;14.17;9.13;;;;;;;;;;5040300;28;20352;-70
2021/12/09 01:51:16;;;;;;;14.53;9.87;;;;;;;;;;5039126;28;20248;-70
2021/12/09 01:53:45;;;;;;;13.73;9.67;;;;;;;;;;5038335;28;20210;-70
2021/12/09 01:56:21;;;;;;;14.67;9.67;;;;;;;;;;5039389;28;20230;-70
2021/12/09 01:58:48;;;;;;;13.60;9.27;;;;;;;;;;5039432;28;20202;-70
2021/12/09 02:01:14;;;;;;;14.77;9.50;;;;;;;;;;5038019;28;20288;-70
2021/12/09 02:03:40;;;;;;;22.60;9.43;;;;;;;;;;5038100;28;20211;-70
2021/12/09 02:06:07;;;;;;;11.93;9.57;;;;;;;;;;5039799;28;20291;-70
2021/12/09 02:08:34;;;;;;;16.97;9.80;;;;;;;;;;5040711;28;20658;-70
2021/12/09 02:11:01;;;;;;;14.33;9.70;;;;;;;;;;5041310;28;20279;-70
2021/12/09 02:13:28;;;;;;;14.83;10.27;;;;;;;;;;5044224;28;20672;-69
2021/12/09 02:15:56;;;;;;;16.27;10.30;;;;;;;;;;5041711;28;20689;-72
2021/12/09 02:18:24;;;;;;;15.40;9.43;;;;;;;;;;5041963;28;20950;-69
2021/12/09 02:21:08;;;;;;;12.87;10.00;;;;;;;;;;5043334;28;20210;-70
2021/12/09 02:23:36;;;;;;;12.00;9.53;;;;;;;;;;5042896;28;20216;-70
2021/12/09 02:26:05;;;;;;;16.10;10.77;;;;;;;;;;5039257;28;20593;-71
2021/12/09 02:28:31;;;;;;;21.43;11.20;;;;;;;;;;5042866;28;20662;-70
2021/12/09 02:30:58;;;;;;;14.20;9.37;;;;;;;;;;5042935;28;20300;-70
2021/12/09 02:33:24;;;;;;;17.03;10.00;;;;;;;;;;5040838;28;20258;-70
2021/12/09 02:35:51;;;;;;;11.53;9.63;;;;;;;;;;5042046;28;20211;-70
2021/12/09 02:38:19;;;;;;;13.63;9.20;;;;;;;;;;5043667;28;20660;-70
2021/12/09 02:40:47;;;;;;;14.17;10.43;;;;;;;;;;5041639;28;20587;-70
2021/12/09 02:43:14;;;;;;;16.53;10.97;;;;;;;;;;5040711;28;20223;-70
2021/12/09 02:45:42;;;;;;;20.13;11.07;;;;;;;;;;5042576;28;20222;-70
2021/12/09 02:48:08;;;;;;;13.43;10.33;;;;;;;;;;5041329;28;20296;-70
2021/12/09 02:50:35;;;;;;;15.33;11.90;;;;;;;;;;5041306;28;20748;-70
2021/12/09 02:53:01;;;;;;;17.63;10.53;;;;;;;;;;5041793;28;20260;-70
2021/12/09 02:55:29;;;;;;;15.27;11.23;;;;;;;;;;5042244;28;20574;-70
2021/12/09 02:57:56;;;;;;;18.50;12.73;;;;;;;;;;5040363;28;20217;-71
2021/12/09 03:00:22;;;;;;;14.63;11.23;;;;;;;;;;5042475;28;20213;-72
2021/12/09 03:02:49;;;;;;;15.57;11.93;;;;;;;;;;5042322;28;20751;-70
2021/12/09 03:05:16;;;;;;;15.57;11.20;;;;;;;;;;5040974;28;20249;-70
2021/12/09 03:07:42;;;;;;;16.90;12.50;;;;;;;;;;5042324;28;20995;-70
2021/12/09 03:10:18;;;;;;;19.80;12.37;;;;;;;;;;5040186;28;20314;-70
2021/12/09 03:12:48;;;;;;;17.23;11.43;;;;;;;;;;5040282;28;20700;-70
2021/12/09 03:15:14;;;;;;;18.90;12.47;;;;;;;;;;5041079;28;20714;-70
2021/12/09 03:17:42;;;;;;;17.13;12.43;;;;;;;;;;5041896;28;20303;-70
2021/12/09 03:20:10;;;;;;;16.43;11.23;;;;;;;;;;5038904;28;20216;-70
2021/12/09 03:22:37;;;;;;;15.87;12.13;;;;;;;;;;5041754;28;20221;-70
2021/12/09 03:25:05;;;;;;;16.13;12.57;;;;;;;;;;5041425;28;20647;-70
2021/12/09 03:27:31;;;;;;;18.27;13.00;;;;;;;;;;5040399;28;20245;-70
2021/12/09 03:29:59;;;;;;;17.27;12.57;;;;;;;;;;5040954;28;20287;-70
2021/12/09 03:32:25;;;;;;;16.47;12.30;;;;;;;;;;5041392;28;20234;-70
2021/12/09 03:34:52;;;;;;;17.33;12.03;;;;;;;;;;5041142;28;20210;-70
2021/12/09 03:37:23;;;;;;;17.27;12.07;;;;;;;;;;5039228;28;20207;-70
2021/12/09 03:39:52;;;;;;;16.10;11.77;;;;;;;;;;5041171;28;20231;-70
2021/12/09 03:42:21;;;;;;;17.20;12.90;;;;;;;;;;5041155;28;20206;-72
2021/12/09 03:44:49;;;;;;;19.23;13.07;;;;;;;;;;5039880;28;20217;-70
2021/12/09 03:47:20;;;;;;;17.47;12.90;;;;;;;;;;5040678;28;20226;-70
2021/12/09 03:49:47;;;;;;;15.90;12.83;;;;;;;;;;5041434;28;20227;-70
2021/12/09 03:52:14;;;;;;;20.97;12.90;;;;;;;;;;5039848;28;20217;-70
2021/12/09 03:54:43;;;;;;;21.50;13.23;;;;;;;;;;5040601;28;20666;-72
2021/12/09 03:57:11;;;;;;;21.97;13.93;;;;;;;;;;5042182;28;20252;-70
2021/12/09 03:59:38;;;;;;;21.50;12.87;;;;;;;;;;5039810;28;20430;-70
2021/12/09 04:02:05;;;;;;;17.23;13.27;;;;;;;;;;5040443;28;20755;-70
2021/12/09 04:04:33;;;;;;;20.70;13.50;;;;;;;;;;5042057;28;20225;-72
2021/12/09 04:07:00;;;;;;;16.83;12.60;;;;;;;;;;5039520;28;20659;-70
2021/12/09 04:09:26;;;;;;;18.20;12.50;;;;;;;;;;5040228;28;20256;-70
2021/12/09 04:11:54;;;;;;;17.27;11.70;;;;;;;;;;5041231;28;20279;-70
2021/12/09 04:14:20;;;;;;;20.77;12.50;;;;;;;;;;5040328;28;20324;-71
2021/12/09 04:16:48;;;;;;;13.23;10.80;;;;;;;;;;5039972;28;20990;-70
2021/12/09 04:19:14;;;;;;;16.67;11.93;;;;;;;;;;5040462;28;20309;-71
2021/12/09 04:21:44;;;;;;;16.30;11.23;;;;;;;;;;5039986;28;20280;-70
2021/12/09 04:24:12;;;;;;;16.53;12.23;;;;;;;;;;5038175;28;20257;-70
2021/12/09 04:26:48;;;;;;;16.83;12.77;;;;;;;;;;5040787;28;20261;-71
2021/12/09 04:29:14;;;;;;;17.70;12.43;;;;;;;;;;5039586;28;20683;-70
2021/12/09 04:31:42;;;;;;;15.40;12.40;;;;;;;;;;5039481;28;20866;-71
2021/12/09 04:34:09;;;;;;;13.70;11.90;;;;;;;;;;5039325;28;20223;-71
2021/12/09 04:36:37;;;;;;;14.83;9.83;;;;;;;;;;5041209;28;20663;-71
2021/12/09 04:39:06;;;;;;;19.77;12.67;;;;;;;;;;5039150;28;20336;-70
2021/12/09 04:41:32;;;;;;;19.53;12.97;;;;;;;;;;5040119;28;20241;-70
2021/12/09 04:43:59;;;;;;;14.67;9.93;;;;;;;;;;5040838;28;20204;-72
2021/12/09 04:46:25;;;;;;;14.63;11.17;;;;;;;;;;5038617;28;20232;-72
2021/12/09 04:48:52;;;;;;;14.03;9.37;;;;;;;;;;5039700;28;20239;-71
2021/12/09 04:51:18;;;;;;;17.17;11.83;;;;;;;;;;5040796;28;20208;-70
2021/12/09 04:53:45;;;;;;;22.30;12.30;;;;;;;;;;5038446;28;20214;-70
2021/12/09 04:56:13;;;;;;;18.43;11.77;;;;;;;;;;5038767;28;20225;-70
2021/12/09 04:58:39;;;;;;;17.33;12.47;;;;;;;;;;5040417;28;20584;-71
2021/12/09 05:01:07;;;;;;;18.77;11.83;;;;;;;;;;5039635;28;21111;-71
2021/12/09 05:03:33;;;;;;;18.07;11.37;;;;;;;;;;5038060;28;20226;-70
2021/12/09 05:06:00;;;;;;;19.17;12.10;;;;;;;;;;5040105;28;20214;-71
2021/12/09 05:08:29;;;;;;;16.77;11.90;;;;;;;;;;5039776;28;20230;-72
2021/12/09 05:11:04;;;;;;;15.30;10.97;;;;;;;;;;5037312;28;20855;-71
2021/12/09 05:13:33;;;;;;;15.33;11.70;;;;;;;;;;5039883;28;20222;-72
2021/12/09 05:16:01;;;;;;;15.30;10.60;;;;;;;;;;5039424;28;20265;-73
2021/12/09 05:18:31;;;;;;;14.97;11.43;;;;;;;;;;5038188;28;20206;-71
2021/12/09 05:20:58;;;;;;;14.00;9.73;;;;;;;;;;5039106;28;20219;-72
2021/12/09 05:23:25;;;;;;;17.13;11.40;;;;;;;;;;5040651;28;20248;-73
2021/12/09 05:25:52;;;;;;;16.87;9.93;;;;;;;;;;5037059;28;20228;-73
2021/12/09 05:28:21;;;;;;;16.03;10.47;;;;;;;;;;5038532;28;20689;-70
2021/12/09 05:33:34;;;;;;;17.07;10.47;;;;;;;;;;5040083;28;20217;-75
2021/12/09 05:36:01;;;;;;;13.03;8.93;;;;;;;;;;5038670;28;20256;-75
2021/12/09 05:38:28;;;;;;;14.77;8.67;;;;;;;;;;5039694;28;20668;-77
2021/12/09 05:40:55;;;;;;;15.40;9.33;;;;;;;;;;5039370;28;20378;-77
2021/12/09 05:43:22;;;;;;;15.87;7.63;;;;;;;;;;5042453;28;20767;-77
2021/12/09 05:45:50;;;;;;;16.57;8.90;;;;;;;;;;5044400;28;20253;-77
2021/12/09 05:48:17;;;;;;;14.67;8.80;;;;;;;;;;5043888;28;20634;-76
2021/12/09 05:50:45;;;;;;;13.53;8.00;;;;;;;;;;5042918;28;20713;-77
2021/12/09 05:53:12;;;;;;;13.97;8.50;;;;;;;;;;5043389;28;20986;-77
2021/12/09 05:55:43;;;;;;;11.77;8.13;;;;;;;;;;5043785;28;20709;-77
2021/12/09 05:58:10;;;;;;;13.30;8.10;;;;;;;;;;5043044;28;20219;-76
2021/12/09 06:00:36;;;;;;;12.50;7.87;;;;;;;;;;5043445;28;20693;-76
2021/12/09 06:03:04;;;;;;;11.90;8.47;;;;;;;;;;5044241;28;20213;-76
2021/12/09 06:05:30;;;;;;;12.90;7.53;;;;;;;;;;5042150;28;20250;-76
2021/12/09 06:07:57;;;;;;;15.43;8.13;;;;;;;;;;5042306;28;20222;-76
2021/12/09 06:10:23;;;;;;;14.10;7.40;;;;;;;;;;5043469;28;20698;-75
2021/12/09 06:12:50;;;;;;;18.50;7.37;;;;;;;;;;5043458;28;20230;-76
2021/12/09 06:15:16;;;;;;;13.37;7.33;;;;;;;;;;5041660;28;20209;-76
2021/12/09 06:17:43;;;;;;;9.23;6.60;;;;;;;;;;5044404;28;20297;-75
2021/12/09 06:20:12;;;;;;;14.27;7.70;;;;;;;;;;5042161;28;20367;-76
2021/12/09 06:22:38;;;;;;;16.70;7.40;;;;;;;;;;5041622;28;20248;-75
2021/12/09 06:25:06;;;;;;;15.03;8.27;;;;;;;;;;5042887;28;20264;-75
2021/12/09 06:27:33;;;;;;;16.30;7.20;;;;;;;;;;5041630;28;20242;-76
2021/12/09 06:29:59;;;;;;;14.00;7.90;;;;;;;;;;5041996;28;20215;-76
2021/12/09 06:32:27;;;;;;;10.87;6.50;;;;;;;;;;5043075;28;20227;-75
2021/12/09 06:34:54;;;;;;;10.27;6.23;;;;;;;;;;5042810;28;20221;-76
2021/12/09 06:37:21;;;;;;;11.83;7.53;;;;;;;;;;5040649;28;20215;-77
2021/12/09 06:39:48;;;;;;;11.17;8.17;;;;;;;;;;5042158;28;21186;-76
2021/12/09 06:42:16;;;;;;;14.50;7.50;;;;;;;;;;5042765;28;20214;-76
2021/12/09 06:44:43;;;;;;;12.10;7.27;;;;;;;;;;5042026;28;20214;-77
2021/12/09 06:47:09;;;;;;;11.60;7.50;;;;;;;;;;5041996;28;20231;-77
2021/12/09 06:49:36;;;;;;;13.30;7.60;;;;;;;;;;5043243;28;20280;-77
2021/12/09 06:52:03;;;;;;;12.40;7.43;;;;;;;;;;5041821;28;20243;-75
2021/12/09 06:54:32;;;;;;;13.43;8.13;;;;;;;;;;5040605;28;20217;-76
2021/12/09 06:56:58;;;;;;;12.73;8.07;;;;;;;;;;5043226;28;20698;-76
2021/12/09 06:59:25;;;;;;;10.80;7.23;;;;;;;;;;5041654;28;20772;-75
2021/12/09 07:01:52;;;;;;;12.90;7.37;;;;;;;;;;5039223;28;20705;-76
2021/12/09 07:04:18;;;;;;;11.97;6.87;;;;;;;;;;5042365;28;20665;-76
2021/12/09 07:06:44;;;;;;;13.17;7.77;;;;;;;;;;5038861;28;20203;-76
2021/12/09 07:09:11;;;;;;;13.13;6.63;;;;;;;;;;5040223;28;20226;-75
2021/12/09 07:11:39;;;;;;;14.97;7.43;;;;;;;;;;5040295;28;20230;-76
2021/12/09 07:14:07;;;;;;;14.93;8.13;;;;;;;;;;5038032;28;20214;-75
2021/12/09 07:16:34;;;;;;;12.60;7.40;;;;;;;;;;5040803;28;20226;-76
2021/12/09 07:19:00;;;;;;;11.57;7.27;;;;;;;;;;5039398;28;20675;-75
2021/12/09 07:21:27;;;;;;;13.27;7.27;;;;;;;;;;5038947;28;20210;-75
2021/12/09 07:23:53;;;;;;;13.50;6.90;;;;;;;;;;5038998;28;20210;-75
2021/12/09 07:26:19;;;;;;;11.07;7.80;;;;;;;;;;5036698;28;20222;-75
2021/12/09 07:28:47;;;;;;;14.60;7.77;;;;;;;;;;5039733;28;20748;-75
2021/12/09 07:31:16;;;;;;;13.20;7.80;;;;;;;;;;5036682;28;20226;-75
2021/12/09 07:33:42;;;;;;;13.37;8.03;;;;;;;;;;5039204;28;20213;-75
2021/12/09 07:36:09;;;;;;;14.77;8.03;;;;;;;;;;5037565;28;20296;-75
2021/12/09 07:38:35;;;;;;;13.37;8.03;;;;;;;;;;5037963;28;20238;-76
2021/12/09 07:41:01;;;;;;;15.70;8.03;;;;;;;;;;5040712;28;20617;-75
2021/12/09 07:43:28;;;;;;;15.10;7.67;;;;;;;;;;5037221;28;20284;-77
2021/12/09 07:45:56;;;;;;;14.37;8.03;;;;;;;;;;5039585;28;20238;-75
2021/12/09 07:48:22;;;;;;;11.70;7.90;;;;;;;;;;5037650;28;20241;-76
2021/12/09 07:50:49;;;;;;;14.30;8.67;;;;;;;;;;5038679;28;20299;-76
2021/12/09 07:53:17;;;;;;;19.03;9.00;;;;;;;;;;5038956;28;20276;-75
2021/12/09 07:55:43;;;;;;;16.80;8.33;;;;;;;;;;5037751;28;20234;-75
2021/12/09 07:58:10;;;;;;;15.93;8.83;;;;;;;;;;5039780;28;20212;-75
2021/12/09 08:00:37;;;;;;;15.77;9.73;;;;;;;;;;5038382;28;20260;-75
2021/12/09 08:03:05;;;;;;;11.23;7.40;;;;;;;;;;5038938;28;20211;-75
2021/12/09 08:05:36;;;;;;;15.53;8.23;;;;;;;;;;5039092;28;20214;-75
2021/12/09 08:08:03;;;;;;;10.33;6.27;;;;;;;;;;5036811;28;20595;-75
2021/12/09 08:10:29;;;;;;;15.33;7.83;;;;;;;;;;5038297;28;20368;-75
2021/12/09 08:12:57;;;;;;;13.30;8.13;;;;;;;;;;5037852;28;22047;-75
2021/12/09 08:15:24;;;;;;;15.80;8.50;;;;;;;;;;5038856;28;20215;-75
2021/12/09 08:18:02;;;;;;;14.60;8.20;;;;;;;;;;5038659;28;20210;-75
2021/12/09 08:20:31;;;;;;;10.73;7.13;;;;;;;;;;5036725;28;20305;-75
2021/12/09 08:22:58;;;;;;;11.27;7.80;;;;;;;;;;5038679;28;20214;-76
2021/12/09 08:25:25;;;;;;;16.57;8.83;;;;;;;;;;5036775;28;20800;-75
2021/12/09 08:27:52;;;;;;;15.53;7.90;;;;;;;;;;5039034;28;20233;-75
2021/12/09 08:30:20;;;;;;;11.10;7.23;;;;;;;;;;5038047;28;20218;-75
2021/12/09 08:32:47;;;;;;;16.67;8.20;;;;;;;;;;5037671;28;20238;-75
2021/12/09 08:35:15;;;;;;;12.07;7.73;;;;;;;;;;5038808;28;20642;-75
2021/12/09 08:37:44;;;;;;;15.33;8.47;;;;;;;;;;5035807;28;21143;-75
2021/12/09 08:40:11;;;;;;;23.63;10.20;;;;;;;;;;5040041;28;20240;-76
2021/12/09 08:42:37;;;;;;;12.40;7.63;;;;;;;;;;5038158;28;20268;-75
2021/12/09 08:45:09;;;;;;;11.10;7.20;;;;;;;;;;5036225;28;20214;-75
2021/12/09 08:47:35;;;;;;;12.17;6.87;;;;;;;;;;5037800;28;20227;-75
2021/12/09 08:50:02;;;;;;;12.30;7.70;;;;;;;;;;5035256;28;20239;-75
2021/12/09 08:52:28;;;;;;;9.07;5.70;;;;;;;;;;5036933;28;20211;-76
2021/12/09 08:54:56;;;;;;;12.20;7.13;;;;;;;;;;5037084;28;20225;-76
2021/12/09 08:57:23;;;;;;;15.27;7.23;;;;;;;;;;5037031;28;20207;-76
2021/12/09 08:59:49;;;;;;;9.87;6.63;;;;;;;;;;5034542;28;20207;-76
2021/12/09 09:02:16;;;;;;;16.73;8.00;;;;;;;;;;5033083;28;20233;-77
2021/12/09 09:04:43;;;;;;;11.07;7.43;;;;;;;;;;5035513;28;20210;-76
2021/12/09 09:07:09;;;;;;;14.67;7.50;;;;;;;;;;5035193;28;20214;-77
2021/12/09 09:09:38;;;;;;;10.13;6.20;;;;;;;;;;5034726;28;20260;-76
2021/12/09 09:12:07;;;;;;;13.03;7.00;;;;;;;;;;5033198;28;20609;-75
2021/12/09 09:14:34;;;;;;;8.90;6.40;;;;;;;;;;5031289;28;20218;-75
2021/12/09 09:17:01;;;;;;;11.77;6.70;;;;;;;;;;5034094;28;20665;-74
2021/12/09 09:19:27;;;;;;;11.80;7.10;;;;;;;;;;5034169;28;20578;-74
2021/12/09 09:21:54;;;;;;;8.37;6.67;;;;;;;;;;5033581;28;20215;-74
2021/12/09 09:24:21;;;;;;;10.23;6.33;;;;;;;;;;5033405;28;20210;-74
2021/12/09 09:26:47;;;;;;;10.17;6.07;;;;;;;;;;5031718;28;21005;-74
2021/12/09 09:29:16;;;;;;;12.10;6.57;;;;;;;;;;5034753;28;20226;-75
2021/12/09 09:31:43;;;;;;;10.17;6.40;;;;;;;;;;5033179;28;21121;-75
2021/12/09 09:34:11;;;;;;;13.87;7.10;;;;;;;;;;5032649;28;20218;-75
2021/12/09 09:36:43;;;;;;;9.70;6.33;;;;;;;;;;5033534;28;20714;-76
2021/12/09 09:39:16;;;;;;;14.77;7.23;;;;;;;;;;5033173;28;20225;-76
2021/12/09 09:41:42;;;;;;;12.17;6.90;;;;;;;;;;5034393;28;20212;-76
2021/12/09 09:44:13;;;;;;;12.67;7.10;;;;;;;;;;5032990;28;20214;-77
2021/12/09 09:46:42;;;;;;;11.60;7.00;;;;;;;;;;5033901;28;20736;-77
2021/12/09 09:49:08;;;;;;;13.90;7.77;;;;;;;;;;5034564;28;21207;-78
2021/12/09 09:51:37;;;;;;;11.97;7.63;;;;;;;;;;5034583;28;20304;-77
2021/12/09 09:54:04;;;;;;;14.37;8.20;;;;;;;;;;5035808;28;20222;-78
2021/12/09 09:56:33;;;;;;;13.07;8.73;;;;;;;;;;5033174;28;20920;-77
2021/12/09 09:59:04;;;;;;;13.43;8.37;;;;;;;;;;5034769;28;20314;-77
2021/12/09 10:01:33;;;;;;;12.93;8.20;;;;;;;;;;5034423;28;20341;-79
2021/12/09 10:04:11;;;;;;;14.87;10.10;;;;;;;;;;5033645;28;20323;-77
2021/12/09 10:06:39;;;;;;;13.63;10.33;;;;;;;;;;5033884;28;20385;-77
2021/12/09 10:09:08;;;;;;;16.23;11.13;;;;;;;;;;5034379;28;20222;-77
2021/12/09 10:11:36;;;;;;;18.57;10.90;;;;;;;;;;5034338;28;20226;-77
2021/12/09 10:14:09;;;;;;;17.03;11.03;;;;;;;;;;5034368;28;20321;-79
2021/12/09 10:16:38;;;;;;;20.00;11.40;;;;;;;;;;5033922;28;20233;-77
2021/12/09 10:19:15;;;;;;;22.07;12.87;;;;;;;;;;5034951;28;20301;-77
2021/12/09 10:21:42;;;;;;;14.07;7.80;;;;;;;;;;5032308;28;20210;-77
2021/12/09 10:24:14;;;;;;;20.27;11.57;;;;;;;;;;5035173;28;20218;-76
2021/12/09 10:26:43;;;;;;;23.83;13.33;;;;;;;;;;5033408;28;20672;-76
2021/12/09 10:29:16;;;;;;;18.80;12.93;;;;;;;;;;5035147;28;20333;-77
2021/12/09 10:31:49;;;;;;;21.00;12.53;;;;;;;;;;5039143;28;20222;-77
2021/12/09 10:34:28;;;;;;;21.67;12.20;;;;;;;;;;5036144;28;20206;-77
2021/12/09 10:37:14;;;;;;;22.93;12.93;;;;;;;;;;5038092;28;20282;-76
2021/12/09 10:39:45;;;;;;;25.17;13.10;;;;;;;;;;5037518;28;20233;-76
2021/12/09 10:42:14;;;;;;;18.57;12.73;;;;;;;;;;5035533;28;20209;-76
2021/12/09 10:44:45;;;;;;;22.53;12.40;;;;;;;;;;5038437;28;20210;-76
2021/12/09 10:47:20;;;;;;;18.30;11.77;;;;;;;;;;5036194;28;20218;-76
2021/12/09 10:50:02;;;;;;;16.07;9.50;;;;;;;;;;5036488;28;20240;-76
2021/12/09 10:52:38;;;;;;;18.23;13.30;;;;;;;;;;5037790;28;20585;-76
2021/12/09 10:55:12;;;;;;;17.70;12.00;;;;;;;;;;5035735;28;20234;-76
2021/12/09 10:57:38;;;;;;;21.23;11.87;;;;;;;;;;5035756;28;20218;-75
2021/12/09 11:00:24;;;;;;;19.63;10.87;;;;;;;;;;5037536;28;20210;-75
2021/12/09 11:02:59;;;;;;;18.13;11.83;;;;;;;;;;5035894;28;20218;-77
2021/12/09 11:05:28;;;;;;;19.87;13.30;;;;;;;;;;5037665;28;20291;-77
2021/12/09 11:07:55;;;;;;;22.50;12.37;;;;;;;;;;5036023;28;20266;-77
2021/12/09 11:10:23;;;;;;;20.53;12.47;;;;;;;;;;5035071;28;20288;-76
2021/12/09 11:12:55;;;;;;;19.67;13.63;;;;;;;;;;5037306;28;20679;-77
2021/12/09 11:15:42;;;;;;;22.43;13.67;;;;;;;;;;5034394;28;20212;-77
2021/12/09 11:18:25;;;;;;;16.10;12.90;;;;;;;;;;5035439;28;20223;-75
2021/12/09 11:20:54;;;;;;;24.57;14.30;;;;;;;;;;5036628;28;20202;-77
2021/12/09 11:23:30;;;;;;;23.57;14.13;;;;;;;;;;5033374;28;20219;-77
2021/12/09 11:26:00;;;;;;;15.77;9.00;;;;;;;;;;5036653;28;20527;-77
2021/12/09 11:28:27;;;;;;;19.60;13.43;;;;;;;;;;5034034;28;20663;-77
2021/12/09 11:31:08;;;;;;;22.10;13.00;;;;;;;;;;5035156;28;20266;-77
2021/12/09 11:33:40;;;;;;;14.93;10.10;;;;;;;;;;5037267;28;20582;-75
2021/12/09 11:36:14;;;;;;;27.63;12.17;;;;;;;;;;5034684;28;20210;-78
2021/12/09 11:39:09;;;;;;;16.60;12.43;;;;;;;;;;5036099;28;20673;-77
2021/12/09 11:41:39;;;;;;;18.13;11.77;;;;;;;;;;5036432;28;20226;-77
2021/12/09 11:44:08;;;;;;;21.50;12.20;;;;;;;;;;5034061;28;20705;-75
2021/12/09 11:46:35;;;;;;;18.50;12.67;;;;;;;;;;5036599;28;20223;-77
2021/12/09 11:49:02;;;;;;;24.27;13.40;;;;;;;;;;5036584;28;20703;-77
2021/12/09 11:51:30;;;;;;;17.77;10.57;;;;;;;;;;5035253;28;20210;-76
2021/12/09 11:53:59;;;;;;;19.60;12.43;;;;;;;;;;5035947;28;20214;-75
2021/12/09 11:56:34;;;;;;;24.07;12.83;;;;;;;;;;5033906;28;20248;-76
2021/12/09 11:59:38;;;;;;;11.27;8.00;;;;;;;;;;5036346;28;20243;-75
2021/12/09 12:11:07;;;;;;;20.90;13.37;;;;;;;;;;5035806;28;21125;-75
2021/12/09 12:11:16;;;;;;;19.60;12.13;;;;;;;;;;5034827;28;20230;-76
2021/12/09 12:13:49;;;;;;;21.93;14.17;;;;;;;;;;5034419;28;20256;-77
2021/12/09 12:16:47;;;;;;;19.10;12.30;;;;;;;;;;5036118;28;20262;-76
2021/12/09 12:19:25;;;;;;;16.23;12.53;;;;;;;;;;5035746;28;20210;-78
2021/12/09 12:22:23;;;;;;;20.57;12.70;;;;;;;;;;5034261;28;20810;-78
2021/12/09 12:25:11;;;;;;;17.93;10.77;;;;;;;;;;5034796;28;20272;-76
2021/12/09 12:27:55;;;;;;;16.37;10.90;;;;;;;;;;5035826;28;20374;-75
2021/12/09 12:30:53;;;;;;;15.63;11.40;;;;;;;;;;5031506;28;20693;-75
2021/12/09 12:33:30;;;;;;;17.33;11.57;;;;;;;;;;5033655;28;20749;-77
2021/12/09 12:39:08;;;;;;;22.97;12.40;;;;;;;;;;5033199;28;20612;-76
2021/12/09 12:42:04;;;;;;;20.17;12.77;;;;;;;;;;5033048;28;20222;-77
2021/12/09 12:44:31;;;;;;;22.30;12.03;;;;;;;;;;5034534;28;20232;-75
2021/12/09 12:47:08;;;;;;;17.23;11.33;;;;;;;;;;5032987;28;20226;-75
2021/12/09 12:49:36;;;;;;;22.00;12.13;;;;;;;;;;5033142;28;20246;-75
2021/12/09 12:52:07;;;;;;;22.70;12.50;;;;;;;;;;5036086;28;20688;-76
2021/12/09 12:54:42;;;;;;;16.70;12.47;;;;;;;;;;5031898;28;20219;-78
2021/12/09 12:57:15;;;;;;;19.80;13.10;;;;;;;;;;5034548;28;20255;-76
2021/12/09 12:59:45;;;;;;;14.40;10.90;;;;;;;;;;5033960;28;20209;-75
2021/12/09 13:11:08;;;;;;;18.33;12.87;;;;;;;;;;5032956;28;20244;-78
2021/12/09 13:13:45;;;;;;;21.70;13.83;;;;;;;;;;5032320;28;20733;-75
2021/12/09 13:16:17;;;;;;;16.80;11.87;;;;;;;;;;5024528;28;20222;-77
2021/12/09 13:18:59;;;;;;;19.00;12.83;;;;;;;;;;5028295;28;20321;-77
2021/12/09 13:21:47;;;;;;;18.77;11.60;;;;;;;;;;5030683;28;20849;-77
2021/12/09 13:24:34;;;;;;;20.47;12.00;;;;;;;;;;5028438;28;20214;-77
2021/12/09 13:27:29;;;;;;;23.53;14.97;;;;;;;;;;5029195;28;20787;-75
2021/12/09 13:30:10;;;;;;;18.87;12.67;;;;;;;;;;5029429;28;20234;-76
2021/12/09 13:33:01;;;;;;;17.80;11.90;;;;;;;;;;5030126;28;20231;-76
2021/12/09 13:35:39;;;;;;;20.00;12.30;;;;;;;;;;5027356;28;20215;-77
2021/12/09 13:38:35;;;;;;;19.67;12.60;;;;;;;;;;5030286;28;21451;-75
2021/12/09 13:46:59;;;;;;;19.10;13.60;;;;;;;;;;5029806;28;20311;-75
2021/12/09 13:49:40;;;;;;;17.47;11.07;;;;;;;;;;5033496;28;20244;-77
2021/12/09 13:54:06;;;;;;;24.67;13.37;;;;;;;;;;5031003;28;20698;-77
2021/12/09 13:54:59;;;;;;;19.57;13.40;;;;;;;;;;5030258;28;20222;-77
2021/12/09 13:57:32;;;;;;;18.70;12.67;;;;;;;;;;5032285;28;20668;-77
2021/12/09 13:59:59;;;;;;;18.10;14.07;;;;;;;;;;5030996;28;20211;-77
2021/12/09 14:02:30;;;;;;;16.80;10.27;;;;;;;;;;5033502;28;20234;-77
2021/12/09 14:04:59;;;;;;;17.47;13.10;;;;;;;;;;5036493;28;20199;-77
2021/12/09 14:07:33;;;;;;;18.40;12.97;;;;;;;;;;5035444;28;20211;-77
2021/12/09 14:10:03;;;;;;;16.73;11.20;;;;;;;;;;5036241;28;20222;-77
2021/12/09 14:12:36;;;;;;;19.00;13.20;;;;;;;;;;5029737;28;20206;-77
2021/12/09 14:15:07;;;;;;;17.73;13.03;;;;;;;;;;5038081;28;20737;-78
2021/12/09 14:17:37;;;;;;;17.37;13.43;;;;;;;;;;5036296;28;20222;-76
2021/12/09 14:20:06;;;;;;;18.83;12.90;;;;;;;;;;5035564;28;20210;-76
2021/12/09 14:22:35;;;;;;;18.30;13.40;;;;;;;;;;5037844;28;20214;-76
2021/12/09 14:25:06;;;;;;;15.77;13.50;;;;;;;;;;5034946;28;20379;-76
2021/12/09 14:27:32;;;;;;;21.80;14.20;;;;;;;;;;5036862;28;20202;-76
2021/12/09 14:29:59;;;;;;;20.67;13.73;;;;;;;;;;5034965;28;20599;-75
2021/12/09 14:32:28;;;;;;;17.73;13.87;;;;;;;;;;5034280;28;20296;-76
2021/12/09 14:34:59;;;;;;;16.37;13.77;;;;;;;;;;5037360;28;20751;-76
2021/12/09 14:37:27;;;;;;;19.50;15.47;;;;;;;;;;5035287;28;20245;-76
2021/12/09 14:40:01;;;;;;;20.70;14.50;;;;;;;;;;5037688;28;20665;-75
2021/12/09 14:42:29;;;;;;;18.27;14.67;;;;;;;;;;5042474;28;20206;-75
2021/12/09 14:44:57;;;;;;;18.20;14.93;;;;;;;;;;5036354;28;20302;-75
2021/12/09 14:47:24;;;;;;;22.00;15.50;;;;;;;;;;5036872;28;20281;-75
2021/12/09 14:49:53;;;;;;;20.00;15.23;;;;;;;;;;5036989;28;20273;-77
2021/12/09 14:52:31;;;;;;;20.27;16.07;;;;;;;;;;5036006;28;20333;-76
2021/12/09 14:55:16;;;;;;;20.77;15.07;;;;;;;;;;5036924;28;20371;-76
2021/12/09 14:57:58;;;;;;;22.07;16.43;;;;;;;;;;5034871;28;20273;-75
2021/12/09 15:00:34;;;;;;;20.97;15.57;;;;;;;;;;5036456;28;20214;-75
2021/12/09 15:03:02;;;;;;;19.93;15.63;;;;;;;;;;5036505;28;20206;-75
2021/12/09 15:05:31;;;;;;;18.47;15.10;;;;;;;;;;5032598;28;20314;-75